sensor_id;sensor_type;location;lat;lon;timestamp;P1;durP1;ratioP1;P2;durP2;ratioP2
27670;SDS011;15077;49.704;9.908;2023-04-04T00:01:58;0.90;;;0.70;;
27670;SDS011;15077;49.704;9.908;2023-04-04T00:04:27;3.05;;;1.15;;
27670;SDS011;15077;49.704;9.908;2023-04-04T00:06:53;1.92;;;1.00;;
27670;SDS011;15077;49.704;9.908;2023-04-04T00:09:19;0.95;;;0.65;;
27670;SDS011;15077;49.704;9.908;2023-04-04T00:11:46;1.48;;;0.70;;
27670;SDS011;15077;49.704;9.908;2023-04-04T00:14:12;1.00;;;0.70;;
27670;SDS011;15077;49.704;9.908;2023-04-04T00:16:38;1.77;;;0.70;;
27670;SDS011;15077;49.704;9.908;2023-04-04T00:19:05;1.70;;;0.90;;
27670;SDS011;15077;49.704;9.908;2023-04-04T00:21:32;0.95;;;0.52;;
27670;SDS011;15077;49.704;9.908;2023-04-04T00:23:58;1.77;;;0.57;;
27670;SDS011;15077;49.704;9.908;2023-04-04T00:26:24;2.85;;;1.05;;
27670;SDS011;15077;49.704;9.908;2023-04-04T00:28:50;1.65;;;0.82;;
27670;SDS011;15077;49.704;9.908;2023-04-04T00:31:17;1.30;;;0.60;;
27670;SDS011;15077;49.704;9.908;2023-04-04T00:33:43;0.82;;;0.57;;
27670;SDS011;15077;49.704;9.908;2023-04-04T00:36:09;1.48;;;1.15;;
27670;SDS011;15077;49.704;9.908;2023-04-04T00:38:35;1.55;;;0.60;;
27670;SDS011;15077;49.704;9.908;2023-04-04T00:41:01;2.17;;;0.75;;
27670;SDS011;15077;49.704;9.908;2023-04-04T00:43:33;1.20;;;0.80;;
27670;SDS011;15077;49.704;9.908;2023-04-04T00:46:01;1.35;;;0.80;;
27670;SDS011;15077;49.704;9.908;2023-04-04T00:48:27;1.55;;;0.80;;
27670;SDS011;15077;49.704;9.908;2023-04-04T00:50:54;1.55;;;0.60;;
27670;SDS011;15077;49.704;9.908;2023-04-04T00:53:20;2.83;;;0.60;;
27670;SDS011;15077;49.704;9.908;2023-04-04T00:55:47;1.42;;;0.82;;
27670;SDS011;15077;49.704;9.908;2023-04-04T00:58:13;1.95;;;0.70;;
27670;SDS011;15077;49.704;9.908;2023-04-04T01:00:39;1.52;;;1.20;;
27670;SDS011;15077;49.704;9.908;2023-04-04T01:03:05;1.48;;;0.75;;
27670;SDS011;15077;49.704;9.908;2023-04-04T01:05:34;1.50;;;0.68;;
27670;SDS011;15077;49.704;9.908;2023-04-04T01:08:00;1.05;;;0.68;;
27670;SDS011;15077;49.704;9.908;2023-04-04T01:10:26;1.45;;;0.60;;
27670;SDS011;15077;49.704;9.908;2023-04-04T01:12:55;0.65;;;0.60;;
27670;SDS011;15077;49.704;9.908;2023-04-04T01:15:21;1.75;;;0.75;;
27670;SDS011;15077;49.704;9.908;2023-04-04T01:17:47;3.25;;;0.68;;
27670;SDS011;15077;49.704;9.908;2023-04-04T01:20:19;2.35;;;0.73;;
27670;SDS011;15077;49.704;9.908;2023-04-04T01:22:50;3.00;;;0.70;;
27670;SDS011;15077;49.704;9.908;2023-04-04T01:25:39;0.60;;;0.40;;
27670;SDS011;15077;49.704;9.908;2023-04-04T01:28:05;1.42;;;0.65;;
27670;SDS011;15077;49.704;9.908;2023-04-04T01:30:31;1.33;;;0.60;;
27670;SDS011;15077;49.704;9.908;2023-04-04T01:33:03;4.28;;;1.13;;
27670;SDS011;15077;49.704;9.908;2023-04-04T01:41:24;0.70;;;0.50;;
27670;SDS011;15077;49.704;9.908;2023-04-04T01:43:54;1.65;;;0.65;;
27670;SDS011;15077;49.704;9.908;2023-04-04T01:46:21;1.13;;;0.50;;
27670;SDS011;15077;49.704;9.908;2023-04-04T01:48:47;1.60;;;0.70;;
27670;SDS011;15077;49.704;9.908;2023-04-04T01:51:13;1.20;;;0.80;;
27670;SDS011;15077;49.704;9.908;2023-04-04T01:53:39;3.35;;;0.50;;
27670;SDS011;15077;49.704;9.908;2023-04-04T01:56:05;1.27;;;0.65;;
27670;SDS011;15077;49.704;9.908;2023-04-04T01:58:31;0.47;;;0.40;;
27670;SDS011;15077;49.704;9.908;2023-04-04T02:00:57;1.20;;;0.63;;
27670;SDS011;15077;49.704;9.908;2023-04-04T02:03:23;0.70;;;0.40;;
27670;SDS011;15077;49.704;9.908;2023-04-04T02:05:49;2.50;;;0.60;;
27670;SDS011;15077;49.704;9.908;2023-04-04T02:08:15;1.08;;;0.50;;
27670;SDS011;15077;49.704;9.908;2023-04-04T02:10:41;0.82;;;0.50;;
27670;SDS011;15077;49.704;9.908;2023-04-04T02:13:06;2.05;;;0.95;;
27670;SDS011;15077;49.704;9.908;2023-04-04T02:15:32;2.03;;;0.90;;
27670;SDS011;15077;49.704;9.908;2023-04-04T02:17:59;0.68;;;0.50;;
27670;SDS011;15077;49.704;9.908;2023-04-04T02:20:25;0.43;;;0.40;;
27670;SDS011;15077;49.704;9.908;2023-04-04T02:22:52;1.67;;;0.60;;
27670;SDS011;15077;49.704;9.908;2023-04-04T02:25:20;0.93;;;0.60;;
27670;SDS011;15077;49.704;9.908;2023-04-04T02:27:47;0.50;;;0.50;;
27670;SDS011;15077;49.704;9.908;2023-04-04T02:30:13;0.80;;;0.60;;
27670;SDS011;15077;49.704;9.908;2023-04-04T02:32:39;0.70;;;0.50;;
27670;SDS011;15077;49.704;9.908;2023-04-04T02:35:06;1.20;;;0.57;;
27670;SDS011;15077;49.704;9.908;2023-04-04T02:37:32;1.10;;;0.60;;
27670;SDS011;15077;49.704;9.908;2023-04-04T02:40:01;1.20;;;0.60;;
27670;SDS011;15077;49.704;9.908;2023-04-04T02:42:27;0.85;;;0.47;;
27670;SDS011;15077;49.704;9.908;2023-04-04T02:44:53;1.00;;;0.50;;
27670;SDS011;15077;49.704;9.908;2023-04-04T02:47:19;1.55;;;0.73;;
27670;SDS011;15077;49.704;9.908;2023-04-04T02:49:45;1.48;;;0.50;;
27670;SDS011;15077;49.704;9.908;2023-04-04T02:52:11;1.98;;;0.55;;
27670;SDS011;15077;49.704;9.908;2023-04-04T02:54:36;1.90;;;0.55;;
27670;SDS011;15077;49.704;9.908;2023-04-04T02:57:02;1.00;;;0.60;;
27670;SDS011;15077;49.704;9.908;2023-04-04T02:59:28;1.58;;;0.60;;
27670;SDS011;15077;49.704;9.908;2023-04-04T03:01:54;0.70;;;0.50;;
27670;SDS011;15077;49.704;9.908;2023-04-04T03:04:20;0.70;;;0.50;;
27670;SDS011;15077;49.704;9.908;2023-04-04T03:06:46;1.00;;;0.55;;
27670;SDS011;15077;49.704;9.908;2023-04-04T03:09:13;1.08;;;0.70;;
27670;SDS011;15077;49.704;9.908;2023-04-04T03:11:39;1.73;;;0.75;;
27670;SDS011;15077;49.704;9.908;2023-04-04T03:14:05;2.00;;;0.60;;
27670;SDS011;15077;49.704;9.908;2023-04-04T03:16:31;0.98;;;0.45;;
27670;SDS011;15077;49.704;9.908;2023-04-04T03:18:57;0.93;;;0.47;;
27670;SDS011;15077;49.704;9.908;2023-04-04T03:21:23;1.52;;;0.47;;
27670;SDS011;15077;49.704;9.908;2023-04-04T03:23:49;1.73;;;1.00;;
27670;SDS011;15077;49.704;9.908;2023-04-04T03:26:15;0.80;;;0.52;;
27670;SDS011;15077;49.704;9.908;2023-04-04T03:28:41;0.80;;;0.40;;
27670;SDS011;15077;49.704;9.908;2023-04-04T03:31:07;0.95;;;0.55;;
27670;SDS011;15077;49.704;9.908;2023-04-04T03:33:36;0.98;;;0.60;;
27670;SDS011;15077;49.704;9.908;2023-04-04T03:36:05;1.55;;;0.75;;
27670;SDS011;15077;49.704;9.908;2023-04-04T03:38:36;1.42;;;0.70;;
27670;SDS011;15077;49.704;9.908;2023-04-04T03:41:02;0.50;;;0.50;;
27670;SDS011;15077;49.704;9.908;2023-04-04T03:43:30;1.10;;;0.60;;
27670;SDS011;15077;49.704;9.908;2023-04-04T03:46:00;0.82;;;0.60;;
27670;SDS011;15077;49.704;9.908;2023-04-04T03:48:27;3.00;;;1.05;;
27670;SDS011;15077;49.704;9.908;2023-04-04T03:50:54;1.98;;;0.88;;
27670;SDS011;15077;49.704;9.908;2023-04-04T03:53:22;1.27;;;0.50;;
27670;SDS011;15077;49.704;9.908;2023-04-04T03:55:49;1.35;;;0.70;;
27670;SDS011;15077;49.704;9.908;2023-04-04T03:58:16;1.20;;;0.60;;
27670;SDS011;15077;49.704;9.908;2023-04-04T04:00:42;1.67;;;0.75;;
27670;SDS011;15077;49.704;9.908;2023-04-04T04:03:08;1.90;;;0.60;;
27670;SDS011;15077;49.704;9.908;2023-04-04T04:05:35;1.27;;;0.80;;
27670;SDS011;15077;49.704;9.908;2023-04-04T04:08:01;2.35;;;0.70;;
27670;SDS011;15077;49.704;9.908;2023-04-04T04:10:27;1.73;;;0.85;;
27670;SDS011;15077;49.704;9.908;2023-04-04T04:12:52;2.17;;;0.70;;
27670;SDS011;15077;49.704;9.908;2023-04-04T04:15:18;0.90;;;0.52;;
27670;SDS011;15077;49.704;9.908;2023-04-04T04:17:44;1.70;;;0.85;;
27670;SDS011;15077;49.704;9.908;2023-04-04T04:20:10;1.00;;;0.70;;
27670;SDS011;15077;49.704;9.908;2023-04-04T04:22:36;1.50;;;0.60;;
27670;SDS011;15077;49.704;9.908;2023-04-04T04:25:02;0.82;;;0.68;;
27670;SDS011;15077;49.704;9.908;2023-04-04T04:27:28;1.67;;;0.80;;
27670;SDS011;15077;49.704;9.908;2023-04-04T04:29:54;0.93;;;0.70;;
27670;SDS011;15077;49.704;9.908;2023-04-04T04:32:20;1.80;;;0.63;;
27670;SDS011;15077;49.704;9.908;2023-04-04T04:34:46;1.20;;;0.70;;
27670;SDS011;15077;49.704;9.908;2023-04-04T04:37:12;7.43;;;0.80;;
27670;SDS011;15077;49.704;9.908;2023-04-04T04:39:38;1.77;;;0.90;;
27670;SDS011;15077;49.704;9.908;2023-04-04T04:42:03;1.20;;;0.70;;
27670;SDS011;15077;49.704;9.908;2023-04-04T04:44:29;1.55;;;0.68;;
27670;SDS011;15077;49.704;9.908;2023-04-04T04:46:56;1.48;;;0.65;;
27670;SDS011;15077;49.704;9.908;2023-04-04T04:49:22;1.13;;;0.60;;
27670;SDS011;15077;49.704;9.908;2023-04-04T04:51:47;1.50;;;0.77;;
27670;SDS011;15077;49.704;9.908;2023-04-04T04:54:13;2.25;;;0.93;;
27670;SDS011;15077;49.704;9.908;2023-04-04T04:56:39;3.80;;;1.08;;
27670;SDS011;15077;49.704;9.908;2023-04-04T04:59:04;2.35;;;1.30;;
27670;SDS011;15077;49.704;9.908;2023-04-04T05:01:35;2.95;;;1.45;;
27670;SDS011;15077;49.704;9.908;2023-04-04T05:04:01;2.47;;;1.48;;
27670;SDS011;15077;49.704;9.908;2023-04-04T05:06:27;2.35;;;1.75;;
27670;SDS011;15077;49.704;9.908;2023-04-04T05:08:52;5.40;;;2.40;;
27670;SDS011;15077;49.704;9.908;2023-04-04T05:11:18;5.82;;;2.70;;
27670;SDS011;15077;49.704;9.908;2023-04-04T05:13:45;6.43;;;2.63;;
27670;SDS011;15077;49.704;9.908;2023-04-04T05:16:11;5.75;;;3.00;;
27670;SDS011;15077;49.704;9.908;2023-04-04T05:18:37;5.95;;;3.58;;
27670;SDS011;15077;49.704;9.908;2023-04-04T05:21:02;5.85;;;3.42;;
27670;SDS011;15077;49.704;9.908;2023-04-04T05:23:28;7.13;;;4.00;;
27670;SDS011;15077;49.704;9.908;2023-04-04T05:25:54;7.32;;;3.53;;
27670;SDS011;15077;49.704;9.908;2023-04-04T05:28:20;8.52;;;4.50;;
27670;SDS011;15077;49.704;9.908;2023-04-04T05:30:47;9.52;;;4.32;;
27670;SDS011;15077;49.704;9.908;2023-04-04T05:33:13;8.02;;;4.38;;
27670;SDS011;15077;49.704;9.908;2023-04-04T05:35:39;6.75;;;3.45;;
27670;SDS011;15077;49.704;9.908;2023-04-04T05:38:05;5.35;;;2.25;;
27670;SDS011;15077;49.704;9.908;2023-04-04T05:40:31;4.10;;;1.83;;
27670;SDS011;15077;49.704;9.908;2023-04-04T05:42:58;3.00;;;1.52;;
27670;SDS011;15077;49.704;9.908;2023-04-04T05:45:28;3.22;;;1.58;;
27670;SDS011;15077;49.704;9.908;2023-04-04T05:47:55;2.83;;;1.52;;
27670;SDS011;15077;49.704;9.908;2023-04-04T05:50:21;2.33;;;1.35;;
27670;SDS011;15077;49.704;9.908;2023-04-04T05:52:47;3.10;;;1.27;;
27670;SDS011;15077;49.704;9.908;2023-04-04T05:55:13;2.33;;;1.10;;
27670;SDS011;15077;49.704;9.908;2023-04-04T05:57:51;3.17;;;1.98;;
27670;SDS011;15077;49.704;9.908;2023-04-04T06:00:17;2.20;;;1.40;;
27670;SDS011;15077;49.704;9.908;2023-04-04T06:02:43;5.38;;;1.52;;
27670;SDS011;15077;49.704;9.908;2023-04-04T06:05:09;2.20;;;1.20;;
27670;SDS011;15077;49.704;9.908;2023-04-04T06:07:36;1.75;;;1.05;;
27670;SDS011;15077;49.704;9.908;2023-04-04T06:10:03;1.00;;;0.85;;
27670;SDS011;15077;49.704;9.908;2023-04-04T06:12:30;5.35;;;1.70;;
27670;SDS011;15077;49.704;9.908;2023-04-04T06:14:55;4.57;;;1.95;;
27670;SDS011;15077;49.704;9.908;2023-04-04T06:17:21;5.18;;;1.40;;
27670;SDS011;15077;49.704;9.908;2023-04-04T06:19:48;2.88;;;1.77;;
27670;SDS011;15077;49.704;9.908;2023-04-04T06:22:14;4.78;;;1.70;;
27670;SDS011;15077;49.704;9.908;2023-04-04T06:24:41;5.55;;;2.05;;
27670;SDS011;15077;49.704;9.908;2023-04-04T06:27:07;3.50;;;2.47;;
27670;SDS011;15077;49.704;9.908;2023-04-04T06:29:33;5.43;;;2.13;;
27670;SDS011;15077;49.704;9.908;2023-04-04T06:31:59;7.15;;;3.17;;
27670;SDS011;15077;49.704;9.908;2023-04-04T06:34:25;4.78;;;2.10;;
27670;SDS011;15077;49.704;9.908;2023-04-04T06:36:50;6.40;;;2.83;;
27670;SDS011;15077;49.704;9.908;2023-04-04T06:39:16;3.67;;;2.15;;
27670;SDS011;15077;49.704;9.908;2023-04-04T06:41:42;3.80;;;2.60;;
27670;SDS011;15077;49.704;9.908;2023-04-04T06:44:08;5.30;;;3.03;;
27670;SDS011;15077;49.704;9.908;2023-04-04T06:46:36;5.07;;;2.45;;
27670;SDS011;15077;49.704;9.908;2023-04-04T06:49:01;3.88;;;2.40;;
27670;SDS011;15077;49.704;9.908;2023-04-04T06:51:27;5.05;;;2.70;;
27670;SDS011;15077;49.704;9.908;2023-04-04T06:53:54;4.50;;;2.10;;
27670;SDS011;15077;49.704;9.908;2023-04-04T06:56:21;7.07;;;2.63;;
27670;SDS011;15077;49.704;9.908;2023-04-04T06:58:47;4.55;;;2.13;;
27670;SDS011;15077;49.704;9.908;2023-04-04T07:01:13;5.47;;;2.97;;
27670;SDS011;15077;49.704;9.908;2023-04-04T07:03:39;3.88;;;2.28;;
27670;SDS011;15077;49.704;9.908;2023-04-04T07:06:05;3.30;;;1.83;;
27670;SDS011;15077;49.704;9.908;2023-04-04T07:08:31;5.40;;;2.67;;
27670;SDS011;15077;49.704;9.908;2023-04-04T07:10:57;3.22;;;2.25;;
27670;SDS011;15077;49.704;9.908;2023-04-04T07:13:24;4.75;;;2.35;;
27670;SDS011;15077;49.704;9.908;2023-04-04T07:15:50;3.20;;;2.17;;
27670;SDS011;15077;49.704;9.908;2023-04-04T07:18:16;5.30;;;2.72;;
27670;SDS011;15077;49.704;9.908;2023-04-04T07:20:44;6.25;;;2.63;;
27670;SDS011;15077;49.704;9.908;2023-04-04T07:23:11;4.97;;;2.38;;
27670;SDS011;15077;49.704;9.908;2023-04-04T07:25:37;3.97;;;2.47;;
27670;SDS011;15077;49.704;9.908;2023-04-04T07:28:03;4.88;;;2.50;;
27670;SDS011;15077;49.704;9.908;2023-04-04T07:30:29;6.20;;;2.83;;
27670;SDS011;15077;49.704;9.908;2023-04-04T07:33:00;7.70;;;2.90;;
27670;SDS011;15077;49.704;9.908;2023-04-04T07:35:26;3.72;;;2.80;;
27670;SDS011;15077;49.704;9.908;2023-04-04T07:37:53;5.00;;;2.97;;
27670;SDS011;15077;49.704;9.908;2023-04-04T07:40:19;2.60;;;2.35;;
27670;SDS011;15077;49.704;9.908;2023-04-04T07:42:46;6.30;;;3.00;;
27670;SDS011;15077;49.704;9.908;2023-04-04T07:45:15;3.58;;;2.65;;
27670;SDS011;15077;49.704;9.908;2023-04-04T07:47:45;7.03;;;3.00;;
27670;SDS011;15077;49.704;9.908;2023-04-04T07:50:11;3.83;;;2.92;;
27670;SDS011;15077;49.704;9.908;2023-04-04T07:52:38;3.55;;;2.60;;
27670;SDS011;15077;49.704;9.908;2023-04-04T07:55:05;4.82;;;3.55;;
27670;SDS011;15077;49.704;9.908;2023-04-04T07:57:38;6.15;;;2.67;;
27670;SDS011;15077;49.704;9.908;2023-04-04T08:00:07;4.53;;;3.10;;
27670;SDS011;15077;49.704;9.908;2023-04-04T08:02:34;4.15;;;2.85;;
27670;SDS011;15077;49.704;9.908;2023-04-04T08:05:01;5.38;;;2.83;;
27670;SDS011;15077;49.704;9.908;2023-04-04T08:07:27;4.57;;;2.88;;
27670;SDS011;15077;49.704;9.908;2023-04-04T08:09:53;4.57;;;2.72;;
27670;SDS011;15077;49.704;9.908;2023-04-04T08:12:19;4.90;;;2.90;;
27670;SDS011;15077;49.704;9.908;2023-04-04T08:14:45;6.82;;;2.55;;
27670;SDS011;15077;49.704;9.908;2023-04-04T08:17:11;5.80;;;2.72;;
27670;SDS011;15077;49.704;9.908;2023-04-04T08:19:38;4.72;;;2.75;;
27670;SDS011;15077;49.704;9.908;2023-04-04T08:22:04;2.90;;;2.50;;
27670;SDS011;15077;49.704;9.908;2023-04-04T08:24:30;4.72;;;2.53;;
27670;SDS011;15077;49.704;9.908;2023-04-04T08:26:56;4.13;;;2.50;;
27670;SDS011;15077;49.704;9.908;2023-04-04T08:29:21;7.22;;;2.83;;
27670;SDS011;15077;49.704;9.908;2023-04-04T08:31:47;5.07;;;2.63;;
27670;SDS011;15077;49.704;9.908;2023-04-04T08:34:13;5.72;;;3.15;;
27670;SDS011;15077;49.704;9.908;2023-04-04T08:36:38;4.32;;;2.60;;
27670;SDS011;15077;49.704;9.908;2023-04-04T08:39:04;3.70;;;1.85;;
27670;SDS011;15077;49.704;9.908;2023-04-04T08:41:30;6.07;;;2.40;;
27670;SDS011;15077;49.704;9.908;2023-04-04T08:43:59;4.72;;;2.40;;
27670;SDS011;15077;49.704;9.908;2023-04-04T08:46:28;4.50;;;2.63;;
27670;SDS011;15077;49.704;9.908;2023-04-04T08:48:55;6.15;;;2.83;;
27670;SDS011;15077;49.704;9.908;2023-04-04T08:51:23;5.65;;;2.75;;
27670;SDS011;15077;49.704;9.908;2023-04-04T08:53:53;6.13;;;2.60;;
27670;SDS011;15077;49.704;9.908;2023-04-04T08:56:21;4.82;;;2.72;;
27670;SDS011;15077;49.704;9.908;2023-04-04T08:58:48;4.00;;;2.60;;
27670;SDS011;15077;49.704;9.908;2023-04-04T09:01:13;4.38;;;2.40;;
27670;SDS011;15077;49.704;9.908;2023-04-04T09:03:40;4.75;;;2.40;;
27670;SDS011;15077;49.704;9.908;2023-04-04T09:06:08;4.68;;;2.88;;
27670;SDS011;15077;49.704;9.908;2023-04-04T09:08:34;4.07;;;2.65;;
27670;SDS011;15077;49.704;9.908;2023-04-04T09:11:01;3.92;;;1.95;;
27670;SDS011;15077;49.704;9.908;2023-04-04T09:13:28;5.00;;;2.20;;
27670;SDS011;15077;49.704;9.908;2023-04-04T09:15:54;3.08;;;2.13;;
27670;SDS011;15077;49.704;9.908;2023-04-04T09:18:22;5.88;;;2.70;;
27670;SDS011;15077;49.704;9.908;2023-04-04T09:20:48;5.25;;;2.20;;
27670;SDS011;15077;49.704;9.908;2023-04-04T09:23:18;5.30;;;2.55;;
27670;SDS011;15077;49.704;9.908;2023-04-04T09:25:45;3.63;;;1.92;;
27670;SDS011;15077;49.704;9.908;2023-04-04T09:28:19;4.75;;;2.20;;
27670;SDS011;15077;49.704;9.908;2023-04-04T09:30:47;4.85;;;2.00;;
27670;SDS011;15077;49.704;9.908;2023-04-04T09:33:14;2.85;;;2.00;;
27670;SDS011;15077;49.704;9.908;2023-04-04T09:35:48;5.53;;;2.45;;
27670;SDS011;15077;49.704;9.908;2023-04-04T09:38:38;5.55;;;2.70;;
27670;SDS011;15077;49.704;9.908;2023-04-04T09:41:12;6.18;;;2.55;;
27670;SDS011;15077;49.704;9.908;2023-04-04T09:43:39;5.25;;;2.20;;
27670;SDS011;15077;49.704;9.908;2023-04-04T09:46:11;3.97;;;2.78;;
27670;SDS011;15077;49.704;9.908;2023-04-04T09:48:37;4.07;;;2.47;;
27670;SDS011;15077;49.704;9.908;2023-04-04T09:51:03;6.20;;;2.85;;
27670;SDS011;15077;49.704;9.908;2023-04-04T09:53:34;5.85;;;2.60;;
27670;SDS011;15077;49.704;9.908;2023-04-04T09:56:02;5.25;;;2.58;;
27670;SDS011;15077;49.704;9.908;2023-04-04T09:58:29;4.55;;;2.15;;
27670;SDS011;15077;49.704;9.908;2023-04-04T10:01:07;3.75;;;2.40;;
27670;SDS011;15077;49.704;9.908;2023-04-04T10:03:34;5.03;;;2.83;;
27670;SDS011;15077;49.704;9.908;2023-04-04T10:06:03;4.32;;;2.75;;
27670;SDS011;15077;49.704;9.908;2023-04-04T10:08:32;5.80;;;2.53;;
27670;SDS011;15077;49.704;9.908;2023-04-04T10:11:02;4.72;;;2.03;;
27670;SDS011;15077;49.704;9.908;2023-04-04T10:13:30;2.80;;;1.80;;
27670;SDS011;15077;49.704;9.908;2023-04-04T10:15:59;4.53;;;2.47;;
27670;SDS011;15077;49.704;9.908;2023-04-04T10:18:34;3.17;;;2.47;;
27670;SDS011;15077;49.704;9.908;2023-04-04T10:21:01;3.30;;;2.13;;
27670;SDS011;15077;49.704;9.908;2023-04-04T10:23:29;3.88;;;2.50;;
27670;SDS011;15077;49.704;9.908;2023-04-04T10:25:57;5.47;;;3.08;;
27670;SDS011;15077;49.704;9.908;2023-04-04T10:28:24;2.33;;;1.95;;
27670;SDS011;15077;49.704;9.908;2023-04-04T10:30:53;5.32;;;2.78;;
27670;SDS011;15077;49.704;9.908;2023-04-04T10:33:26;4.22;;;2.83;;
27670;SDS011;15077;49.704;9.908;2023-04-04T10:36:07;3.58;;;2.38;;
27670;SDS011;15077;49.704;9.908;2023-04-04T10:38:40;4.97;;;2.10;;
27670;SDS011;15077;49.704;9.908;2023-04-04T10:41:12;5.03;;;2.55;;
27670;SDS011;15077;49.704;9.908;2023-04-04T10:43:39;4.85;;;2.85;;
27670;SDS011;15077;49.704;9.908;2023-04-04T10:46:07;3.53;;;2.67;;
27670;SDS011;15077;49.704;9.908;2023-04-04T10:48:40;3.97;;;2.53;;
27670;SDS011;15077;49.704;9.908;2023-04-04T10:51:09;3.88;;;2.92;;
27670;SDS011;15077;49.704;9.908;2023-04-04T10:53:36;5.57;;;2.72;;
27670;SDS011;15077;49.704;9.908;2023-04-04T10:56:04;5.07;;;2.63;;
27670;SDS011;15077;49.704;9.908;2023-04-04T10:58:32;2.83;;;2.50;;
27670;SDS011;15077;49.704;9.908;2023-04-04T11:01:05;4.57;;;2.72;;
27670;SDS011;15077;49.704;9.908;2023-04-04T11:03:32;5.15;;;2.72;;
27670;SDS011;15077;49.704;9.908;2023-04-04T11:12:29;3.80;;;2.88;;
27670;SDS011;15077;49.704;9.908;2023-04-04T11:20:23;7.30;;;3.55;;
27670;SDS011;15077;49.704;9.908;2023-04-04T11:23:02;4.45;;;2.63;;
27670;SDS011;15077;49.704;9.908;2023-04-04T11:25:53;6.25;;;3.47;;
27670;SDS011;15077;49.704;9.908;2023-04-04T11:39:23;3.78;;;2.60;;
27670;SDS011;15077;49.704;9.908;2023-04-04T11:44:41;4.32;;;2.50;;
27670;SDS011;15077;49.704;9.908;2023-04-04T11:47:13;6.68;;;2.40;;
27670;SDS011;15077;49.704;9.908;2023-04-04T11:49:44;3.33;;;2.50;;
27670;SDS011;15077;49.704;9.908;2023-04-04T11:52:12;3.60;;;2.70;;
27670;SDS011;15077;49.704;9.908;2023-04-04T11:54:42;4.03;;;3.10;;
27670;SDS011;15077;49.704;9.908;2023-04-04T11:57:10;5.00;;;3.03;;
27670;SDS011;15077;49.704;9.908;2023-04-04T11:59:47;4.82;;;3.17;;
27670;SDS011;15077;49.704;9.908;2023-04-04T12:02:15;5.82;;;3.10;;
27670;SDS011;15077;49.704;9.908;2023-04-04T12:04:45;5.68;;;3.40;;
27670;SDS011;15077;49.704;9.908;2023-04-04T12:07:12;8.30;;;3.45;;
27670;SDS011;15077;49.704;9.908;2023-04-04T12:09:41;6.05;;;3.58;;
27670;SDS011;15077;49.704;9.908;2023-04-04T12:12:12;4.55;;;2.90;;
27670;SDS011;15077;49.704;9.908;2023-04-04T12:14:40;4.75;;;3.33;;
27670;SDS011;15077;49.704;9.908;2023-04-04T12:17:07;4.32;;;2.90;;
27670;SDS011;15077;49.704;9.908;2023-04-04T12:19:36;4.10;;;2.90;;
27670;SDS011;15077;49.704;9.908;2023-04-04T12:22:04;4.97;;;2.60;;
27670;SDS011;15077;49.704;9.908;2023-04-04T12:24:32;5.03;;;3.33;;
27670;SDS011;15077;49.704;9.908;2023-04-04T12:26:58;5.07;;;3.30;;
27670;SDS011;15077;49.704;9.908;2023-04-04T12:29:25;4.40;;;3.67;;
27670;SDS011;15077;49.704;9.908;2023-04-04T12:31:52;5.05;;;3.50;;
27670;SDS011;15077;49.704;9.908;2023-04-04T12:34:23;7.10;;;3.60;;
27670;SDS011;15077;49.704;9.908;2023-04-04T12:36:54;8.57;;;3.88;;
27670;SDS011;15077;49.704;9.908;2023-04-04T12:39:25;8.55;;;3.47;;
27670;SDS011;15077;49.704;9.908;2023-04-04T12:41:54;6.07;;;3.58;;
27670;SDS011;15077;49.704;9.908;2023-04-04T12:46:58;11.63;;;4.35;;
27670;SDS011;15077;49.704;9.908;2023-04-04T12:49:29;6.40;;;3.38;;
27670;SDS011;15077;49.704;9.908;2023-04-04T12:51:58;5.53;;;3.25;;
27670;SDS011;15077;49.704;9.908;2023-04-04T12:54:32;5.45;;;3.13;;
27670;SDS011;15077;49.704;9.908;2023-04-04T12:57:03;5.13;;;3.22;;
27670;SDS011;15077;49.704;9.908;2023-04-04T12:59:32;5.78;;;3.13;;
27670;SDS011;15077;49.704;9.908;2023-04-04T13:02:00;5.75;;;2.85;;
27670;SDS011;15077;49.704;9.908;2023-04-04T13:04:30;4.90;;;2.90;;
27670;SDS011;15077;49.704;9.908;2023-04-04T13:06:58;4.30;;;3.60;;
27670;SDS011;15077;49.704;9.908;2023-04-04T13:09:25;4.45;;;3.10;;
27670;SDS011;15077;49.704;9.908;2023-04-04T13:12:02;4.25;;;3.40;;
27670;SDS011;15077;49.704;9.908;2023-04-04T13:17:42;4.53;;;2.83;;
27670;SDS011;15077;49.704;9.908;2023-04-04T13:20:10;7.00;;;2.80;;
27670;SDS011;15077;49.704;9.908;2023-04-04T13:22:37;5.97;;;3.58;;
27670;SDS011;15077;49.704;9.908;2023-04-04T13:25:05;4.22;;;2.78;;
27670;SDS011;15077;49.704;9.908;2023-04-04T13:27:32;4.88;;;3.90;;
27670;SDS011;15077;49.704;9.908;2023-04-04T13:30:00;4.20;;;2.90;;
27670;SDS011;15077;49.704;9.908;2023-04-04T13:32:27;4.85;;;3.30;;
27670;SDS011;15077;49.704;9.908;2023-04-04T13:34:53;3.53;;;2.85;;
27670;SDS011;15077;49.704;9.908;2023-04-04T13:37:18;4.57;;;3.08;;
27670;SDS011;15077;49.704;9.908;2023-04-04T13:39:44;5.65;;;3.05;;
27670;SDS011;15077;49.704;9.908;2023-04-04T13:42:10;6.00;;;2.90;;
27670;SDS011;15077;49.704;9.908;2023-04-04T13:44:37;3.95;;;2.35;;
27670;SDS011;15077;49.704;9.908;2023-04-04T13:47:02;3.20;;;2.30;;
27670;SDS011;15077;49.704;9.908;2023-04-04T13:49:28;5.25;;;3.70;;
27670;SDS011;15077;49.704;9.908;2023-04-04T13:51:54;4.95;;;2.97;;
27670;SDS011;15077;49.704;9.908;2023-04-04T13:54:20;4.28;;;3.05;;
27670;SDS011;15077;49.704;9.908;2023-04-04T13:56:45;4.13;;;2.65;;
27670;SDS011;15077;49.704;9.908;2023-04-04T13:59:11;3.13;;;2.75;;
27670;SDS011;15077;49.704;9.908;2023-04-04T14:01:40;5.03;;;3.15;;
27670;SDS011;15077;49.704;9.908;2023-04-04T14:04:06;5.40;;;3.13;;
27670;SDS011;15077;49.704;9.908;2023-04-04T14:06:32;5.95;;;3.20;;
27670;SDS011;15077;49.704;9.908;2023-04-04T14:08:57;5.28;;;2.58;;
27670;SDS011;15077;49.704;9.908;2023-04-04T14:11:23;5.38;;;2.85;;
27670;SDS011;15077;49.704;9.908;2023-04-04T14:13:55;4.68;;;3.40;;
27670;SDS011;15077;49.704;9.908;2023-04-04T14:16:22;4.25;;;3.10;;
27670;SDS011;15077;49.704;9.908;2023-04-04T14:18:47;4.28;;;3.13;;
27670;SDS011;15077;49.704;9.908;2023-04-04T14:21:14;3.10;;;2.10;;
27670;SDS011;15077;49.704;9.908;2023-04-04T14:23:40;4.13;;;2.90;;
27670;SDS011;15077;49.704;9.908;2023-04-04T14:26:05;3.63;;;3.00;;
27670;SDS011;15077;49.704;9.908;2023-04-04T14:28:31;4.45;;;2.30;;
27670;SDS011;15077;49.704;9.908;2023-04-04T14:30:57;4.10;;;2.75;;
27670;SDS011;15077;49.704;9.908;2023-04-04T14:33:23;5.70;;;2.97;;
27670;SDS011;15077;49.704;9.908;2023-04-04T14:35:50;5.88;;;3.08;;
27670;SDS011;15077;49.704;9.908;2023-04-04T14:38:16;5.40;;;3.67;;
27670;SDS011;15077;49.704;9.908;2023-04-04T14:40:41;6.25;;;3.38;;
27670;SDS011;15077;49.704;9.908;2023-04-04T14:43:11;4.53;;;3.05;;
27670;SDS011;15077;49.704;9.908;2023-04-04T14:45:37;3.35;;;2.50;;
27670;SDS011;15077;49.704;9.908;2023-04-04T14:48:03;2.30;;;2.00;;
27670;SDS011;15077;49.704;9.908;2023-04-04T14:50:28;5.70;;;2.85;;
27670;SDS011;15077;49.704;9.908;2023-04-04T14:52:54;7.38;;;2.95;;
27670;SDS011;15077;49.704;9.908;2023-04-04T14:55:20;5.10;;;3.00;;
27670;SDS011;15077;49.704;9.908;2023-04-04T14:57:51;3.42;;;2.60;;
27670;SDS011;15077;49.704;9.908;2023-04-04T15:00:17;4.05;;;3.08;;
27670;SDS011;15077;49.704;9.908;2023-04-04T15:02:48;9.88;;;3.30;;
27670;SDS011;15077;49.704;9.908;2023-04-04T15:05:14;3.58;;;3.10;;
27670;SDS011;15077;49.704;9.908;2023-04-04T15:07:41;5.82;;;3.08;;
27670;SDS011;15077;49.704;9.908;2023-04-04T15:10:09;4.82;;;3.10;;
27670;SDS011;15077;49.704;9.908;2023-04-04T15:12:34;4.53;;;3.05;;
27670;SDS011;15077;49.704;9.908;2023-04-04T15:15:00;4.43;;;2.75;;
27670;SDS011;15077;49.704;9.908;2023-04-04T15:17:26;6.28;;;3.78;;
27670;SDS011;15077;49.704;9.908;2023-04-04T15:19:51;4.28;;;3.30;;
27670;SDS011;15077;49.704;9.908;2023-04-04T15:22:17;6.10;;;3.15;;
27670;SDS011;15077;49.704;9.908;2023-04-04T15:24:43;4.57;;;2.95;;
27670;SDS011;15077;49.704;9.908;2023-04-04T15:27:08;5.18;;;2.75;;